Ride Results

Far-A-Way Saturday (07-04-2007)
Ride distance: 84.0 km

Outcomes - Far-A-Way Saturday (07-04-2007)
Division No. of Entries Retired / DNE Completed Withdrawn Ineligible V/O Percentage Completed
HW 18 - 11 - - 7 61.11%
MW 49 - 37 1 - 11 75.51%
LW 27 - 23 1 - 3 85.19%
JN 12 - 9 - - 3 75.00%
Totals 106 - 80 2 - 24 75.47%
Results - Far-A-Way Saturday (07-04-2007)
No. Rider Horse Place Time Leg Speeds Total
Km/Hr
H/R bpm
Heavyweight
46 Tim Weismann Hirstglen Tara 1 5:41:00 14.8, 14.7 14.78 48, 51, 58 (Avg:54)
26 Elizabeth Paton Rafyke 2 6:17:00 13.8, 12.8 13.37 30, 48, 60 (Avg:54)
92 Selwyn Nix Dunbar Mahadik 3 6:50:00 12.3, 12.1 12.29 28, 38, 41 (Avg:39)
50 Katie-Maree Cullen Zenith Park Quill 4 7:24:00 13.0, 9.8 11.35 30, 45, 42 (Avg:43)
39 Peter Toft Bremervale Justice 5 7:32:00 10.4, 12.1 11.15 33, 46, 48 (Avg:47)
105 Alwyn Torenbeek Coal Dust 6 8:03:00 11.0, 9.7 10.43 36, 44, 50 (Avg:47)
17 Paul Lanham Sylvia Vale Barrister 7 8:08:00 11.7, 9.0 10.33 44, 40, 58 (Avg:49)
54 Roger Warner Hillbrae Kahalan 8 8:19:00 10.9, 9.2 10.10 35, 42, 46 (Avg:44)
64 Scott Barker Saronet Phantom 9 8:36:00 11.1, 8.5 9.77 31, 50, 46 (Avg:48)
58 John Willcox Two Jays John Thomas 10 8:39:00 10.9, 8.5 9.71 40, 53, 56 (Avg:54)
5 Keith Sullivan Luciana 11 8:44:00 9.6, 9.5 9.62 40, 48, 46 (Avg:47)
8 Malcolm Caldwell Celandra Ramazar Heart Rate L2 0:00:00 14.4, 11.3 - 37, 51, 70 (Avg:60)
70 Bill Colley Pinteri Flame Lame L2 0:00:00 14.0, 9.1 - 30, 38, 55 (Avg:46)
93 David Horton Penwisk Ice Magic Heart Rate L2 0:00:00 13.6, 12.6 - 39, 49, 71 (Avg:60)
59 Mark Nimon Abbeywood Rumor Heart Rate L2 0:00:00 15.8, 12.5 - 37, 46, 65 (Avg:55)
48 Matt Sample Duloe Dollar Heart Rate L2 0:00:00 16.5, 12.6 - 28, 48, 69 (Avg:58)
87 Mick Hill Dawson River Swanessa Lame L1 0:00:00 11.4 - 40, 42 (Avg:42)
82 Louise Mackey Count Lea Lame L1 0:00:00 11.4 - 28, 35 (Avg:35)
Middleweight
35 Matthew Gadsby Dardanga Fingal 1 4:43:00 17.5, 18.0 17.81 31, 46, 51 (Avg:48)
15 Ken Moir Raaward Channelle 2 4:51:00 17.5, 17.0 17.32 38, 50, 59 (Avg:54)
102 Joyce Corbett Reeflex 3 4:52:00 15.7, 19.4 17.26 31, 36, 48 (Avg:42)
40 Penny Toft Don 3 4:52:00 17.3, 17.1 17.26 38, 39, 39 (Avg:39)
62 Stephen Gray Raaward Samaya 5 4:57:00 17.3, 16.5 16.97 39, 47, 52 (Avg:49)
107 Wayne McKinnon Dunbar Lexus 6 5:12:00 17.5, 14.7 16.15 37, 41, 60 (Avg:50)
33 Marion Lengronne Karim's Pride 7 5:32:00 16.3, 13.9 15.18 30, 42, 43 (Avg:42)
68 Tanya Trevarthen Sahala Afrikhaan 8 5:59:00 13.9, 14.1 14.04 29, 43, 57 (Avg:50)
3 Di Kupsch Nangana Rivah Queen 9 6:12:00 14.3, 12.7 13.55 27, 55, 49 (Avg:52)
109 Georgia Zischke Atlas 10 6:15:00 14.0, 12.7 13.44 36, 42, 45 (Avg:43)
25 Sandra Birch Hillbrae Riley 11 6:17:00 13.8, 12.8 13.37 41, 36, 52 (Avg:44)
57 Jackie Swan Longrun Domino 12 6:18:00 13.7, 12.8 13.33 36, 30, 49 (Avg:39)
103 Billie Barron Shardell Sharana Golden 13 6:34:00 14.2, 11.3 12.79 30, 36, 50 (Avg:43)
104 Emma Holland Shardell Azrark 13 6:34:00 14.2, 11.3 12.79 26, 42, 43 (Avg:42)
44 Gayle Holmes Blue Bronco 15 6:49:00 12.0, 12.6 12.32 33, 38, 52 (Avg:45)
51 Saasha Grogan Aloha Millennium 16 7:02:00 11.5, 12.3 11.94 39, 48, 57 (Avg:52)
11 Melissa Longhurst Kitt 17 7:03:00 12.1, 11.6 11.91 33, 39, 39 (Avg:39)
60 Adrian Brickley Alhambra Trinidad 18 7:08:00 12.3, 11.1 11.78 36, 40, 47 (Avg:43)
63 Trent Brickley Chaswyck Giorgio 18 7:08:00 12.3, 11.1 11.78 36, 42, 52 (Avg:47)
91 Corey Nix Bint Liberty 20 7:22:00 11.2, 11.6 11.40 44, 48, 58 (Avg:53)
90 Derryn Nix Rowallan Rufous 20 7:22:00 11.2, 11.6 11.40 42, 47, 48 (Avg:47)
88 Robyn Edwards Wendell 22 7:24:00 12.4, 10.2 11.35 34, 42, 60 (Avg:51)
86 Jayne Fry Rivalyn Shianne 23 7:42:00 11.4, 10.3 10.91 21, 36, 38 (Avg:37)
66 Bridget Nottle Byrnlea Park Sokol 23 7:42:00 11.5, 10.1 10.91 35, 45, 54 (Avg:49)
108 Caroline Fitzgerald Lanamere Femmara 25 7:52:00 11.4, 9.9 10.68 36, 44, 48 (Avg:46)
22 Vivian Hollins Georgia 25 7:52:00 11.5, 9.7 10.68 30, 40, 55 (Avg:47)
21 Jenny Noffke Sailor 25 7:52:00 11.5, 9.7 10.68 29, 38, 48 (Avg:43)
16 Gerry Bergmans Nathham Park Thammus 28 8:08:00 10.5, 10.0 10.33 36, 46, 54 (Avg:50)
61 Carolyn Strahan Dunwingeri Saahma 28 8:08:00 11.7, 9.0 10.33 37, 49, 55 (Avg:52)
100 Keisuke Goda Splendacrest Perfection 30 8:09:00 11.0, 9.4 10.31 38, 44, 52 (Avg:48)
80 Jo Weismann Porcelain Doll 31 8:20:00 11.1, 9.0 10.08 32, 45, 55 (Avg:50)
28 Tony Bateman Duo Park Orsum 32 8:26:00 9.9, 9.9 9.96 42, 44, 54 (Avg:49)
37 Mark Grogan A Touch Of Frost 32 8:26:00 9.9, 9.9 9.96 28, 44, 46 (Avg:45)
67 Jen Weise Matta Mia Diheb 34 8:32:00 9.6, 10.0 9.84 32, 46, 53 (Avg:49)
43 Michael Gabriel Belgari Bentley 35 8:36:00 10.4, 9.0 9.77 38, 46, 53 (Avg:49)
52 Vicki Gaillard Trazir Mystic Shai 35 8:36:00 9.8, 9.7 9.77 41, 45, 45 (Avg:45)
9 Chris Enstram Millers Park Tahlia 37 8:44:00 9.6, 9.5 9.62 35, 50, 60 (Avg:55)
97 Narelle Childs Follyfoot Heart Rate L2 0:00:00 15.7, 13.9 - 42, 48, 69 (Avg:58)
18 Simone Krahnen Kalkadoon Zorro Lame L2 0:00:00 13.0, 12.4 - 41, 42, 44 (Avg:43)
36 Akhmed Pshunov Abdul Heart Rate L2 0:00:00 12.0, 12.6 - 27, 44, 78 (Avg:61)
34 Rosemary Skipper Cherox Kariim Lame L2 0:00:00 16.3, 13.9 - 29, 42, 42 (Avg:42)
45 Robert Sutton Brookleigh Scarlett Heart Rate L2 0:00:00 13.7, 11.6 - 30, 55, 76 (Avg:65)
7 Lorraine Ternouth Drumlin Mystic Moon Lame L2 0:00:00 9.6, 1.5 - 32, 48, 0 (Avg:24)
14 Ray Vlad Mithras Darius Lame L2 0:00:00 17.3, 14.9 - 41, 45, 55 (Avg:50)
76 Anne Criner Zara Farm Ayesha Heart Rate L1 0:00:00 17.3 - 35, 68 (Avg:68)
24 Karen Fields Cameo Zatopek Heart Rate L1 0:00:00 9.0 - 35, 70 (Avg:70)
10 Ursula Keenan Alamo Kipling Heart Rate L1 0:00:00 9.6 - 66 (Avg:66)
75 James Sheahan Nickolodeon Heart Rate L1 0:00:00 12.7 - 43, 58 (Avg:58)
47 Vanessa Tiffen Hirstglen Louisville Withdrawn L1 0:00:00 - - 42, 45 (Avg:45)
Lightweight
56 Jeanna Maher Red Gum Trinket 1 4:43:00 17.5, 18.0 17.81 37, 45, 54 (Avg:49)
53 Tylana Woodward Tallow Wood Sa Hassan 2 5:59:00 16.3, 11.9 14.04 32, 46, 52 (Avg:49)
71 Sarah Love Koorong Elijah 3 6:08:00 14.5, 12.8 13.70 41, 37, 60 (Avg:48)
1 Elke Zischke Star of Bell 4 6:15:00 14.0, 12.7 13.44 32, 49, 52 (Avg:50)
74 Sasha Laws-King Tracallan Dante 5 6:23:00 12.7, 13.7 13.16 32, 40, 43 (Avg:41)
27 Leah Felton Sovereign Waters Indigo 6 6:30:00 13.4, 12.3 12.92 47, 43, 49 (Avg:46)
101 Sonya Ryan Abrock Ned 7 6:31:00 13.2, 12.5 12.89 34, 42, 47 (Avg:44)
49 Karen Winkel Roswick Fall 8 6:34:00 14.2, 11.3 12.79 31, 42, 46 (Avg:44)
30 Shelley-ann Kimber Gift 9 7:02:00 11.5, 12.3 11.94 30, 40, 49 (Avg:44)
31 Katherine Ryan El Quantum 9 7:02:00 11.5, 12.3 11.94 30, 37, 44 (Avg:40)
13 Wendy Chambers Rokewood Shasada 11 7:03:00 12.1, 11.6 11.91 39, 46, 47 (Avg:46)
12 Stephen Longhurst Pioneer Park Navarone 11 7:03:00 12.1, 11.6 11.91 38, 43, 50 (Avg:46)
89 Lauren Edwards Lusitania 13 7:24:00 12.4, 10.2 11.35 36, 40, 57 (Avg:48)
85 Karen Hill Rivelyn Flicker 14 7:42:00 11.4, 10.3 10.91 28, 42, 38 (Avg:40)
6 Barbara Draheim Danbar Silk N' Satinn 15 7:48:00 11.6, 9.8 10.77 32, 50, 49 (Avg:49)
72 Ashley Ross Dardanga Harmony 16 8:02:00 11.4, 9.4 10.46 31, 44, 52 (Avg:48)
98 Fumiko Ryu Say What 17 8:05:00 11.0, 9.7 10.39 27, 40, 43 (Avg:41)
99 Rieko Soma Kooemba 17 8:05:00 11.0, 9.7 10.39 37, 53, 59 (Avg:56)
29 Kaylea Maher Hillbrae Zoro 19 8:26:00 9.9, 9.9 9.96 35, 39, 49 (Avg:44)
69 Jocelyn Barnes Aloha Kamahl 20 8:32:00 9.6, 10.0 9.84 33, 39, 41 (Avg:40)
55 Tina Howland Ubejane 21 8:36:00 9.8, 9.7 9.77 30, 45, 51 (Avg:48)
65 Amanda Powell Hadji of Damascus 21 8:36:00 11.1, 8.5 9.77 34, 41, 49 (Avg:45)
41 Brooke Warner Webbs Creek Firefly 23 8:44:00 9.8, 9.3 9.62 40, 41, 38 (Avg:39)
84 Alicia Coates Meuta Bint Melva Heart Rate L1 0:00:00 11.7 - 29, 56 (Avg:56)
77 Bec Miller Rio El Saht Heart Rate L1 0:00:00 17.4 - 27, 72 (Avg:72)
83 Heather Parry Agape Genesis Withdrawn L1 0:00:00 - - 36, 44 (Avg:44)
73 Leanne Stevenson Quartz Hill Farm Quicksilver Lame L1 0:00:00 12.4 - 27, 41 (Avg:41)
Junior
4 Haley Jean Steuer Milora Park Boomer 1 4:43:00 17.4, 18.2 17.81 35, 35, 48 (Avg:41)
19 Colleen Krahnen Wywurri Starlight 2 6:34:00 13.0, 12.4 12.79 36, 39, 50 (Avg:44)
20 Erin Krahnen Rodborough Bey Abdul 2 6:34:00 13.0, 12.4 12.79 33, 41, 51 (Avg:46)
96 Ingrid Ambrosiussen Shaah 4 7:22:00 11.0, 11.8 11.40 38, 40, 46 (Avg:43)
32 Alexandra Toft Zalman 5 7:32:00 10.4, 12.1 11.15 30, 36, 34 (Avg:35)
23 Peter Fields Kar-Trice Harmoney 6 7:48:00 11.6, 9.8 10.77 40, 51, 55 (Avg:53)
94 Heather Drake Johroy Custom Made 7 8:09:00 11.0, 9.4 10.31 32, 45, 54 (Avg:49)
78 Jessyca Dakin Midu Ariel 8 8:20:00 11.1, 9.0 10.08 30, 39, 48 (Avg:43)
38 Zoe Locke Ennerdale Olimbus 9 8:44:00 9.8, 9.3 9.62 40, 44, 44 (Avg:44)
95 Tarnia Kittel Monty Heart Rate L2 0:00:00 11.0, 11.8 - 32, 55, 65 (Avg:60)
81 Lainie Zischke Esau Lame L1 0:00:00 13.0 - 32, 48 (Avg:48)
79 Jasmine Shields Mithras Eric Metabolics moderate P/R 0:00:00 - - -